Newport, Canada
Current Conditions -  °F | °C
As of 12:00 PM on Saturday 25 Oct 2014 (Local Time) from CYGP Reporting Station
Light Rain Light Rain  
Wind Chill: 36°   Ceiling: 1000
Heat Index: 39°   Visibility: 4mi
Dew Point: 37°   Wind: 5mph
Humidity: 93%   Direction: 360°N
Pressure: 29.64"   Gusts: NA
Location:  48.27°N, 64.75°W
Report Text: CYGP 251600Z 36004KT 330V060 4SM -RA BR FEW008 OVC010 04/03 A2964 RMK SF1SC7 VIS W 2 SLP039
Loading
Personal Weather Stations






























Interactive Weather Map
Tropical Storm Tracking
New forecast layout! Learn more

10-Day Weather Forecast

Advertisements
Track Severe Weather on mobile